< Typhoon 197005 1970 Season Typhoon 197007 >
Typhoon 197006 (NO-NAME)
General InformationTrack Information on Google Maps || Disaster Info.ResourceGoogle EarthGE AnimationAtom FeedGeoJSON
Detalied Best Track (Time Zone = UTC)
Year Month Day Hour Lat. Long. Pressure (hPa) Wind (kt) Class Image Chart
1970 7 28 00 26.0 137.4 1006 0 2 -- Chart
1970 7 28 06 26.2 136.0 1004 0 2 -- Chart
1970 7 28 12 26.7 135.1 1006 0 2 -- Chart
1970 7 28 18 27.0 134.0 1006 0 2 -- Chart
1970 7 29 00 27.6 133.0 1006 0 2 -- Chart
1970 7 29 06 28.0 132.1 1006 0 2 -- Chart
1970 7 29 12 28.3 131.5 1004 0 2 -- Chart
1970 7 29 18 28.6 131.1 1004 0 2 -- Chart
1970 7 30 00 29.5 130.9 1000 0 9 -- Chart
1970 7 30 06 30.2 130.8 994 0 9 -- Chart
1970 7 30 12 30.6 130.3 1004 0 2 -- Chart
1970 7 30 18 30.5 129.7 1008 0 2 -- Chart
1970 7 31 00 30.1 128.9 1006 0 2 -- Chart
1970 7 31 06 31.0 128.4 1006 0 2 -- Chart
1970 7 31 12 31.7 128.3 1008 0 2 -- Chart
1970 7 31 18 32.5 128.2 1008 0 2 -- Chart
1970 8 1 00 33.1 128.1 1008 0 2 -- Chart
1970 8 1 06 33.8 128.1 1010 0 2 -- Chart
1970 8 1 12 34.0 128.3 1010 0 6 -- Chart
1970 8 1 18 34.2 129.0 1010 0 6 -- Chart
Japan Meteorological Agency Best Track Data | Correction Date : 1989-06-01
< Typhoon 197005 1970 Season Typhoon 197007 >

Help